TENO2: Tenkiller Lake

Data processed at Sun Jan 14 2018 23:31


All information presented herein is the property of the government of the United States of America and may be revised or deleted at any time without prior notice.
Dissemination of this information without the expressed written consent of the Public Affairs Office, Tulsa District U.S. Army Corps of Engineers is strictly prohibited.
These data are gathered electronically and, as presented, have not undergone any form of quality control. These data are not guaranteed to be valid or correct.
Go to home page.
Go to station list.

Upstream stations:

Downstream station:
Previous Day
Next Day
Current Day
    
SHEF ID:       TENO2     Tenkiller Lake
STATION TYPE:  Reservoir
Normal Pool:  Bottom =   594.50, Top =   632.00

               PRECIP PRECIP(A) ELEVATION   STORAGE   TW-ELEV    INFLOW   RELEASE  AIR-TEMP  WIND-DIRWIND-SPEED REL-HUMID SOLAR-RAD   VOLTAGE  BAT-LOAD
                   in        in        ft     ac-ft        ft       cfs       cfs         F       deg       mph         %      W/m2      volt      volt
              Ccp-Rev   Ccp-Rev   Ccp-Rev   Ccp-Rev   Ccp-Rev  Regi-Rev  Regi-Rev   Ccp-Rev   Ccp-Rev   Ccp-Rev   Ccp-Rev   Ccp-Rev   Ccp-Rev   Ccp-Rev
(US/Central)
01/12 00:00      0.00      0.00    626.48    600046    482.07         0         0     20.32    214.10      5.42     68.43      1.00     13.72     13.12
01/12 01:00      0.00      0.00    626.48    600046    482.08         0         0     19.78    220.00      5.25     69.34      0.00     13.73     13.12
01/12 02:00      0.00      0.00    626.47    599928    482.07         0         0     19.33    214.60      5.34     70.69      0.00     13.72     13.07
01/12 03:00      0.00      0.00    626.48    600046    482.07         0         0     18.57    216.80      4.42     70.88      0.00     13.72     13.12
01/12 04:00      0.00      0.00    626.49    600164    482.07         0         0     18.12    209.80      4.87     72.95      0.00     13.72     13.12
01/12 05:00      0.00      0.00    626.50    600282    482.07         0         0     17.69    212.00      4.74     73.98      0.00     13.72     13.12
01/12 06:00      0.00      0.00    626.49    600164    482.68         0         0     16.70    217.30      4.14     78.50      0.00     13.72     13.12
01/12 07:00      0.00      0.00    626.46    599810    486.78         0      3784     15.93    226.50      3.83     78.01      0.00     13.72     13.12
01/12 08:00      0.00      0.00    626.47    599928    486.88         0      3784     16.14    218.00      4.42     77.28      4.00     13.72     13.12
01/12 09:00      0.00      0.00    626.41    599220    486.84      -901      -901     17.69    209.00      5.96     73.08     28.00     13.72     13.07
01/12 10:00      0.00      0.00    626.39    598984    486.85      -901      -901     19.99    202.80      5.30     66.05    315.00     13.72     13.12
01/12 11:00      0.00      0.00    626.36    598630    486.67      -901      -901     23.07    182.80      3.62     55.12    432.00     13.72     13.12
01/12 12:00      0.00      0.00    626.37    598748    482.55      -901      -901     25.16    190.80      4.53     48.16    521.00     13.72     13.18
01/12 13:00      0.00      0.00    626.36    598630    482.26      -901      -901     28.56    206.00      4.52     43.58    442.00     13.72     13.18
01/12 14:00      0.00      0.00    626.38    598866    482.13      -901      -901     30.76    193.70      3.95     40.04    434.00     13.72     13.24
01/12 15:00      0.00      0.00    626.35    598512    482.13      -901      -901     31.42    199.20      3.27     39.01    240.00     13.72     13.24
01/12 16:00      0.00      0.00    626.37    598748    483.36      -901      -901     31.53    210.00      3.53     38.46    186.00     13.72     13.24
01/12 17:00      0.00      0.00    626.34    598394    486.78      -901      -901     30.65    215.10      3.95     41.51    102.00     13.72     13.24
01/12 18:00      0.00      0.00    626.32    598158    486.85      -901      -901     29.66    213.80      4.06     44.50     15.00     13.72     13.30
01/12 19:00      0.00      0.00    626.28    597686    486.93      -901      -901     28.56    219.70      3.72     49.38      0.00     13.73     13.24
01/12 20:00      0.00      0.00    626.26    597450    486.90      -901      -901     28.13    230.20      2.72     49.51      1.00     13.72     13.24
01/12 21:00      0.00      0.00    626.25    597332    486.60      -901      -901     27.46    220.20      2.51     52.44      0.00     13.72     13.24
01/12 22:00      0.00      0.00    626.25    597332    482.55      -901      -901     27.14    213.90      2.58     53.41      1.00     13.72     13.18
01/12 23:00      0.00      0.00    626.25    597332    482.19      -901      -901     26.80    218.00      2.77     54.14      0.00     13.72     13.18